Nederlandse vliegveldverwachtingen (TAF)

Luchtvaartmeteorologische informatie voor operationeel gebruik en vluchtvoorbereiding is beschikbaar op www.luchtvaartmeteo.nl.

ZCZC
FC181700 EHWO     WOENSDRECHT/WOENSDRECHT   NLD   19 m.
TAF EHWO 181700Z NIL=

ZCZC
FC181700 EHKD RRA DE KOOY/DE KOOY   NLD   1 m.
TAF EHKD 181730Z 1818/1906 23012KT 6000 SCT005 BKN008
    PROB30 TEMPO 1816/1821 2000 BR FEW003 BKN005
    BECMG 1818/1820 SCT015 BKN020
    PROB30 1821/1902 4000 -RADZ SCT010 BKN015
    BECMG 1900/1902 9999 NSW SCT020=

ZCZC
FC181700 EHVK RRC VOLKEL/VOLKEL   NLD   21 m.
TAF EHVK 181706Z 1818/1906 20006KT CAVOK
    BECMG 1823/1901 SCT015 BKN020
    PROB40 TEMPO 1823/1903 4500 RADZ SCT008 BKN012
    BECMG 1903/1905 SCT020=

ZCZC
FC181700 EHGR RRD GILZE-RIJEN/GILZE-RIJEN   NLD   14 m.
TAF EHGR 181653Z 1818/1906 21006KT CAVOK
    BECMG 1821/1824 SCT015 BKN020
    PROB40 TEMPO 1822/1902 4500 RADZ SCT008 BKN012
    BECMG 1902/1905 SCT020=

ZCZC
FC181700 EHLW AAA LEEUWARDEN/LEEUWARDEN   NLD   1 m.
TAF AMD EHLW 181848Z 1818/1906 25012KT 0800 FG FEW002 BKN004
    PROB30 TEMPO 1818/1822 4500 BR FEW005 BKN008
    BECMG 1819/1821 6000 SCT012 BKN018
    PROB30 TEMPO 1822/1904 4000 -RADZ SCT010 BKN015
    BECMG 1901/1904 SCT020=

ZCZC
FT181700 EHAM     AMSTERDAM/SCHIPHOL   NLD   -3 m.
TAF EHAM 181704Z 1818/1924 23007KT 9999 SCT018 BKN025
    BECMG 1820/1822 7000 -RA
    PROB40 TEMPO 1822/1901 4000 -RADZ BKN008
    BECMG 1900/1903 24012KT 9999 NSW FEW025
    PROB40 1907/1911 BKN013=

ZCZC
FT181700 EHBK     MAASTRICHT/MAASTRICHT-AACHEN   NLD   114 m.
TAF EHBK 181701Z 1818/1924 20008KT CAVOK
    BECMG 1901/1903 7000 -RADZ
    PROB30 1902/1907 4000 BR -DZ BKN009
    BECMG 1903/1906 9999 NSW
    BECMG 1907/1910 25012KT
    BECMG 1915/1918 22006KT=

ZCZC
FT181700 EHGG     GRONINGEN/EELDE   NLD   5 m.
TAF EHGG 181701Z 1818/1924 23005KT CAVOK
    BECMG 1822/1901 7000 -RADZ
    PROB40 1901/1910 4000 BR -DZ BKN008
    BECMG 1903/1906 25014KT 9999 NSW
    TEMPO 1908/1910 BKN012
    PROB30 TEMPO 1910/1916 7000 -RADZ -SHRA SCT008 BKN012
    SCT015TCU
    BECMG 1916/1919 22010KT
    PROB30 1922/1924 7000=

ZCZC
FT181700 EHRD     ROTTERDAM/THE HAGUE AIRPORT   NLD   -5 m.
TAF EHRD 181705Z 1818/1924 23007KT 9999 SCT018 BKN025
    BECMG 1820/1822 7000 -RA
    PROB40 TEMPO 1822/1901 4000 -RADZ BKN008
    BECMG 1900/1903 24012KT 9999 NSW FEW025
    PROB30 1907/1911 BKN013=

ZCZC
FT181700 EHEH     EINDHOVEN/EINDHOVEN   NLD   22 m.
TAF EHEH 181708Z 1818/1924 22006KT CAVOK
    BECMG 1823/1901 SCT015 BKN020
    PROB40 TEMPO 1823/1903 4500 RADZ SCT008 BKN012
    BECMG 1903/1905 SCT020
    PROB30 TEMPO 1903/1914 SCT008 BKN012
    TEMPO 1909/1916 25013G23KT
    BECMG 1916/1918 22006KT=

18/02/2019 20.00 uur LT